createdAt,value
2019-04-21T00:00:14.643Z,4.17
2019-04-21T00:02:44.090Z,4.10
2019-04-21T00:05:44.608Z,4.80
2019-04-21T00:08:15.100Z,4.30
2019-04-21T00:10:38.501Z,4.57
2019-04-21T00:12:57.371Z,5.27
2019-04-21T00:15:24.379Z,4.50
2019-04-21T00:17:50.902Z,5.13
2019-04-21T00:20:27.348Z,5.30
2019-04-21T00:23:05.896Z,5.30
2019-04-21T00:25:32.131Z,4.63
2019-04-21T00:28:09.340Z,5.13
2019-04-21T00:30:39.893Z,4.60
2019-04-21T00:32:59.972Z,5.10
2019-04-21T00:35:24.565Z,5.77
2019-04-21T00:38:14.649Z,5.20
2019-04-21T00:40:46.343Z,4.90
2019-04-21T00:43:09.038Z,5.83
2019-04-21T00:45:34.912Z,5.27
2019-04-21T00:48:16.604Z,5.27
2019-04-21T00:50:51.067Z,5.40
2019-04-21T00:53:41.613Z,5.60
2019-04-21T00:56:03.578Z,5.67
2019-04-21T00:58:35.928Z,4.63
2019-04-21T01:01:01.812Z,4.73
2019-04-21T01:03:32.705Z,4.47
2019-04-21T01:06:03.175Z,4.10
2019-04-21T01:08:32.757Z,5.10
2019-04-21T01:10:52.767Z,4.00
2019-04-21T01:13:38.809Z,4.20
2019-04-21T01:16:06.862Z,4.37
2019-04-21T01:18:32.580Z,3.40
2019-04-21T01:20:42.589Z,3.63
2019-04-21T01:23:12.386Z,3.80
2019-04-21T01:25:50.064Z,2.83
2019-04-21T01:28:29.949Z,3.57
2019-04-21T01:31:07.507Z,3.80
2019-04-21T01:33:35.664Z,3.80
2019-04-21T01:35:58.053Z,3.20
2019-04-21T01:38:35.697Z,3.70
2019-04-21T01:41:08.640Z,3.70
2019-04-21T01:43:33.946Z,3.80
2019-04-21T01:45:58.963Z,3.33
2019-04-21T01:48:33.326Z,3.77
2019-04-21T01:51:01.553Z,3.20
2019-04-21T01:54:07.640Z,3.53
2019-04-21T01:56:43.201Z,3.83
2019-04-21T01:59:02.711Z,3.50
2019-04-21T02:01:41.278Z,3.70
2019-04-21T02:04:15.407Z,3.80
2019-04-21T02:06:49.052Z,3.37
2019-04-21T02:09:10.191Z,3.30
2019-04-21T02:11:50.680Z,3.20
2019-04-21T02:14:15.724Z,3.60
2019-04-21T02:16:48.185Z,3.47
2019-04-21T02:19:12.562Z,3.40
2019-04-21T02:21:40.224Z,3.60
2019-04-21T02:24:31.205Z,3.43
2019-04-21T02:26:47.103Z,2.83
2019-04-21T02:29:20.621Z,2.87
2019-04-21T02:32:01.874Z,3.33
2019-04-21T02:34:32.270Z,2.77
2019-04-21T02:39:31.740Z,2.90
2019-04-21T02:42:11.547Z,2.90
2019-04-21T02:44:37.512Z,2.90
2019-04-21T02:49:57.227Z,2.83
2019-04-21T02:58:34.761Z,3.47
2019-04-21T03:01:10.115Z,3.03
2019-04-21T03:03:55.018Z,2.80
2019-04-21T03:06:53.765Z,3.17
2019-04-21T03:09:18.565Z,3.13
2019-04-21T03:11:34.766Z,3.27
2019-04-21T03:14:20.615Z,3.10
2019-04-21T03:16:44.292Z,3.53
2019-04-21T03:19:20.374Z,3.47
2019-04-21T03:21:50.632Z,3.03
2019-04-21T03:24:50.687Z,3.67
2019-04-21T03:27:01.594Z,4.03
2019-04-21T03:29:19.930Z,2.90
2019-04-21T03:39:11.463Z,2.80
2019-04-21T03:41:59.754Z,2.77
2019-04-21T03:44:24.748Z,2.60
2019-04-21T03:46:47.220Z,2.47
2019-04-21T03:54:18.144Z,2.80
2019-04-21T03:59:11.164Z,3.63
2019-04-21T04:02:08.245Z,2.70
2019-04-21T04:04:52.722Z,3.20
2019-04-21T04:12:34.825Z,2.70
2019-04-21T04:15:03.003Z,3.13
2019-04-21T04:17:36.724Z,2.70
2019-04-21T04:20:07.847Z,3.10
2019-04-21T04:22:41.181Z,2.40
2019-04-21T04:27:53.467Z,2.70
2019-04-21T04:30:25.386Z,2.50
2019-04-21T04:32:34.773Z,3.80
2019-04-21T04:40:21.530Z,3.37
2019-04-21T04:43:09.744Z,3.60
2019-04-21T04:48:01.928Z,3.90
2019-04-21T04:53:07.452Z,3.90
2019-04-21T04:55:33.660Z,4.03
2019-04-21T05:00:34.599Z,3.83
2019-04-21T05:03:31.631Z,3.90
2019-04-21T05:05:38.164Z,3.17
2019-04-21T05:08:14.939Z,3.20
2019-04-21T05:10:41.327Z,3.37
2019-04-21T05:12:57.028Z,3.80
2019-04-21T05:15:32.460Z,3.40
2019-04-21T05:18:25.271Z,3.17
2019-04-21T05:20:26.087Z,3.57
2019-04-21T05:22:59.776Z,2.90
2019-04-21T05:25:23.397Z,2.93
2019-04-21T05:27:52.553Z,3.20
2019-04-21T05:30:48.994Z,3.20
2019-04-21T05:33:37.816Z,3.13
2019-04-21T05:36:15.554Z,3.27
2019-04-21T05:39:07.199Z,3.63
2019-04-21T05:41:26.390Z,3.30
2019-04-21T05:44:04.807Z,3.13
2019-04-21T05:46:40.907Z,2.90
2019-04-21T05:49:12.700Z,3.23
2019-04-21T05:51:57.129Z,3.20
2019-04-21T05:54:39.215Z,2.93
2019-04-21T05:57:02.562Z,3.20
2019-04-21T05:59:32.683Z,2.80
2019-04-21T06:02:13.602Z,3.20
2019-04-21T06:04:54.871Z,2.90
2019-04-21T06:07:15.358Z,2.93
2019-04-21T06:09:39.960Z,2.73
2019-04-21T06:12:07.629Z,3.20
2019-04-21T06:14:39.300Z,2.90
2019-04-21T06:17:10.961Z,2.70
2019-04-21T06:19:43.258Z,2.70
2019-04-21T06:22:03.588Z,2.73
2019-04-21T06:24:42.205Z,2.70
2019-04-21T06:27:08.416Z,2.40
2019-04-21T06:29:43.698Z,2.80
2019-04-21T06:34:59.129Z,2.50
2019-04-21T06:37:34.884Z,2.50
2019-04-21T06:40:07.686Z,2.97
2019-04-21T06:42:31.477Z,2.43
2019-04-21T06:45:05.943Z,2.53
2019-04-21T06:47:36.465Z,2.70
2019-04-21T06:50:09.658Z,2.73
2019-04-21T06:52:50.218Z,3.23
2019-04-21T06:55:24.236Z,2.90
2019-04-21T06:57:54.352Z,3.07
2019-04-21T07:00:19.523Z,2.80
2019-04-21T07:03:11.050Z,3.10
2019-04-21T07:05:26.230Z,2.60
2019-04-21T07:08:08.937Z,3.00
2019-04-21T07:10:37.260Z,3.13
2019-04-21T07:12:51.348Z,4.33
2019-04-21T07:15:28.419Z,7.07
2019-04-21T07:17:59.450Z,5.00
2019-04-21T07:20:21.502Z,5.00
2019-04-21T07:22:56.818Z,4.67
2019-04-21T07:25:29.734Z,4.03
2019-04-21T07:27:59.922Z,2.93
2019-04-21T07:30:31.742Z,3.23
2019-04-21T07:33:08.963Z,3.10
2019-04-21T07:35:28.212Z,3.63
2019-04-21T07:37:57.655Z,2.57
2019-04-21T07:40:24.302Z,2.70
2019-04-21T07:42:51.450Z,2.70
2019-04-21T07:45:22.511Z,2.63
2019-04-21T07:48:06.573Z,2.90
2019-04-21T07:50:46.355Z,2.73
2019-04-21T07:53:28.771Z,2.63
2019-04-21T07:55:32.531Z,2.80
2019-04-21T07:58:24.342Z,3.20
2019-04-21T08:01:00.960Z,3.10
2019-04-21T08:03:38.855Z,3.50
2019-04-21T08:05:59.194Z,3.03
2019-04-21T08:08:21.668Z,3.10
2019-04-21T08:10:52.268Z,2.47
2019-04-21T08:13:38.196Z,3.00
2019-04-21T08:16:11.034Z,2.73
2019-04-21T08:18:27.964Z,2.93
2019-04-21T08:20:58.621Z,2.77
2019-04-21T08:23:28.739Z,2.77
2019-04-21T08:26:04.906Z,2.43
2019-04-21T08:28:27.621Z,2.70
2019-04-21T08:31:18.417Z,3.03
2019-04-21T08:33:42.865Z,3.03
2019-04-21T08:36:11.228Z,2.97
2019-04-21T08:38:31.509Z,2.70
2019-04-21T08:41:01.655Z,3.33
2019-04-21T08:43:40.037Z,2.97
2019-04-21T08:46:02.069Z,2.77
2019-04-21T08:48:29.311Z,2.40
2019-04-21T08:51:16.720Z,2.57
2019-04-21T08:53:35.755Z,2.40
2019-04-21T08:56:34.550Z,2.83
2019-04-21T08:59:36.138Z,2.70
2019-04-21T09:02:16.512Z,2.20
2019-04-21T09:04:41.098Z,2.70
2019-04-21T09:07:12.911Z,2.73
2019-04-21T09:09:41.565Z,2.80
2019-04-21T09:12:10.616Z,2.57
2019-04-21T09:14:46.057Z,2.67
2019-04-21T09:17:06.566Z,2.87
2019-04-21T09:19:51.733Z,2.50
2019-04-21T09:22:12.863Z,2.77
2019-04-21T09:24:49.803Z,3.23
2019-04-21T09:27:15.847Z,2.57
2019-04-21T09:29:35.395Z,2.67
2019-04-21T09:31:59.503Z,2.77
2019-04-21T09:34:33.188Z,2.30
2019-04-21T09:37:12.469Z,2.60
2019-04-21T09:39:31.204Z,4.13
2019-04-21T09:42:02.399Z,2.90
2019-04-21T09:44:33.601Z,2.47
2019-04-21T09:47:01.969Z,2.70
2019-04-21T09:49:32.787Z,2.97
2019-04-21T09:51:59.926Z,2.70
2019-04-21T09:54:33.662Z,2.70
2019-04-21T09:57:04.002Z,2.33
2019-04-21T09:59:35.553Z,2.60
2019-04-21T10:02:08.492Z,2.20
2019-04-21T10:04:31.121Z,2.40
2019-04-21T10:06:59.696Z,2.90
2019-04-21T10:09:29.010Z,2.37
2019-04-21T10:11:57.776Z,2.10
2019-04-21T10:14:26.440Z,2.33
2019-04-21T10:17:04.684Z,2.93
2019-04-21T10:19:33.931Z,3.00
2019-04-21T10:22:04.011Z,3.20
2019-04-21T10:24:34.008Z,2.80
2019-04-21T10:27:05.052Z,2.60
2019-04-21T10:29:35.804Z,3.10
2019-04-21T10:32:04.073Z,3.90
2019-04-21T10:34:32.577Z,2.90
2019-04-21T10:37:01.013Z,3.90
2019-04-21T10:39:29.956Z,3.00
2019-04-21T10:41:59.589Z,2.67
2019-04-21T10:44:29.417Z,3.00
2019-04-21T10:46:58.529Z,2.43
2019-04-21T10:49:28.621Z,2.40
2019-04-21T10:51:57.296Z,2.80
2019-04-21T10:54:37.867Z,2.37
2019-04-21T10:56:56.763Z,2.77
2019-04-21T10:59:26.798Z,2.70
2019-04-21T11:01:56.857Z,2.67
2019-04-21T11:04:33.719Z,3.00
2019-04-21T11:07:06.726Z,2.93
2019-04-21T11:09:33.965Z,2.70
2019-04-21T11:12:03.992Z,2.50
2019-04-21T11:14:33.466Z,2.70
2019-04-21T11:17:03.945Z,5.93
2019-04-21T11:19:32.804Z,9.07
2019-04-21T11:22:01.269Z,9.40
2019-04-21T11:24:31.174Z,4.00
2019-04-21T11:27:01.558Z,3.90
2019-04-21T11:29:30.969Z,4.10
2019-04-21T11:32:00.899Z,4.23
2019-04-21T11:34:29.900Z,29.20
2019-04-21T11:36:58.767Z,6.10
2019-04-21T11:39:42.027Z,5.37
2019-04-21T11:42:06.128Z,4.20
2019-04-21T11:44:35.321Z,10.43
2019-04-21T11:47:06.787Z,23.03
2019-04-21T11:49:35.277Z,39.23
2019-04-21T11:52:04.898Z,22.53
2019-04-21T11:54:34.953Z,37.23
2019-04-21T11:57:12.468Z,62.53
2019-04-21T11:59:35.477Z,18.17
2019-04-21T12:02:05.649Z,10.60
2019-04-21T12:04:35.683Z,8.03
2019-04-21T12:07:05.084Z,5.83
2019-04-21T12:09:33.837Z,3.60
2019-04-21T12:12:03.364Z,2.97
2019-04-21T12:14:32.188Z,3.87
2019-04-21T12:17:01.124Z,3.43
2019-04-21T12:19:30.940Z,3.40
2019-04-21T12:22:08.822Z,2.93
2019-04-21T12:24:33.406Z,3.27
2019-04-21T12:27:02.291Z,3.47
2019-04-21T12:29:30.946Z,4.00
2019-04-21T12:32:35.996Z,4.27
2019-04-21T12:35:08.348Z,3.53
2019-04-21T12:37:37.213Z,3.60
2019-04-21T12:40:06.449Z,3.57
2019-04-21T12:42:37.634Z,4.30
2019-04-21T12:45:07.488Z,4.03
2019-04-21T12:47:37.660Z,2.87
2019-04-21T12:50:08.617Z,3.80
2019-04-21T12:52:37.874Z,3.87
2019-04-21T12:55:09.297Z,3.60
2019-04-21T12:57:39.162Z,3.80
2019-04-21T13:00:11.085Z,4.93
2019-04-21T13:02:41.693Z,5.23
2019-04-21T13:05:11.701Z,5.63
2019-04-21T13:07:41.495Z,6.13
2019-04-21T13:10:10.547Z,6.57
2019-04-21T13:12:39.216Z,6.23
2019-04-21T13:15:08.709Z,6.67
2019-04-21T13:17:37.573Z,7.30
2019-04-21T13:20:07.338Z,7.33
2019-04-21T13:22:37.475Z,7.03
2019-04-21T13:25:07.623Z,6.50
2019-04-21T13:27:36.681Z,7.53
2019-04-21T13:30:06.711Z,6.83
2019-04-21T13:35:21.316Z,6.57
2019-04-21T13:37:50.667Z,6.77
2019-04-21T13:41:02.147Z,6.37
2019-04-21T13:43:17.046Z,6.57
2019-04-21T13:45:45.883Z,6.43
2019-04-21T13:48:14.846Z,6.00
2019-04-21T13:50:44.001Z,7.10
2019-04-21T13:53:14.290Z,6.23
2019-04-21T13:55:44.662Z,6.20
2019-04-21T13:58:14.487Z,6.37
2019-04-21T14:00:43.198Z,5.77
2019-04-21T14:03:12.481Z,6.00
2019-04-21T14:05:42.465Z,6.13
2019-04-21T14:08:11.576Z,6.50
2019-04-21T14:10:40.000Z,5.50
2019-04-21T14:13:08.696Z,5.63
2019-04-21T14:15:37.857Z,5.87
2019-04-21T14:18:06.957Z,5.20
2019-04-21T14:20:35.446Z,5.23
2019-04-21T14:23:15.889Z,5.30
2019-04-21T14:25:35.426Z,5.63
2019-04-21T14:28:04.257Z,5.00
2019-04-21T14:30:32.686Z,5.07
2019-04-21T14:33:02.385Z,4.83
2019-04-21T14:35:32.717Z,5.10
2019-04-21T14:38:02.733Z,4.77
2019-04-21T14:40:33.720Z,5.03
2019-04-21T14:43:02.919Z,4.60
2019-04-21T14:45:40.845Z,4.30
2019-04-21T14:48:47.164Z,3.97
2019-04-21T14:51:43.301Z,5.00
2019-04-21T14:54:46.961Z,4.50
2019-04-21T14:57:15.621Z,4.93
2019-04-21T14:59:44.855Z,4.57
2019-04-21T15:02:14.065Z,4.83
2019-04-21T15:04:43.931Z,3.90
2019-04-21T15:07:13.032Z,4.07
2019-04-21T15:09:43.240Z,3.23
2019-04-21T15:12:12.024Z,3.07
2019-04-21T15:14:42.262Z,3.10
2019-04-21T15:17:12.425Z,3.23
2019-04-21T15:19:42.920Z,2.73
2019-04-21T15:22:12.339Z,3.00
2019-04-21T15:24:42.470Z,3.57
2019-04-21T15:27:12.678Z,3.10
2019-04-21T15:29:42.726Z,2.87
2019-04-21T15:32:12.575Z,2.93
2019-04-21T15:34:42.367Z,3.23
2019-04-21T15:37:10.948Z,2.70
2019-04-21T15:39:40.462Z,2.40
2019-04-21T15:42:10.414Z,2.67
2019-04-21T15:44:39.072Z,2.93
2019-04-21T15:47:08.208Z,2.30
2019-04-21T15:50:02.915Z,2.70
2019-04-21T15:52:28.032Z,2.77
2019-04-21T15:55:03.152Z,2.70
2019-04-21T15:58:00.645Z,2.83
2019-04-21T16:00:38.438Z,3.00
2019-04-21T16:03:07.149Z,2.50
2019-04-21T16:05:37.013Z,2.63
2019-04-21T16:08:05.897Z,2.90
2019-04-21T16:10:43.598Z,2.87
2019-04-21T16:13:05.763Z,2.83
2019-04-21T16:15:34.744Z,3.37
2019-04-21T16:18:03.683Z,2.30
2019-04-21T16:20:32.725Z,2.40
2019-04-21T16:23:02.249Z,3.03
2019-04-21T16:25:32.695Z,3.10
2019-04-21T16:28:01.622Z,2.90
2019-04-21T16:30:30.910Z,2.33
2019-04-21T16:32:59.893Z,2.70
2019-04-21T16:35:29.554Z,2.63
2019-04-21T16:38:00.427Z,3.13
2019-04-21T16:40:39.753Z,2.73
2019-04-21T16:43:00.253Z,2.80
2019-04-21T16:45:29.025Z,2.63
2019-04-21T16:47:57.827Z,2.33
2019-04-21T16:50:27.955Z,2.30
2019-04-21T16:53:12.300Z,2.80
2019-04-21T16:55:51.138Z,2.87
2019-04-21T16:58:48.471Z,2.90
2019-04-21T17:01:36.453Z,2.70
2019-04-21T17:04:06.605Z,2.60
2019-04-21T17:06:35.572Z,2.67
2019-04-21T17:09:06.209Z,2.20
2019-04-21T17:11:37.214Z,2.23
2019-04-21T17:14:05.789Z,2.43
2019-04-21T17:16:58.355Z,2.30
2019-04-21T17:19:14.718Z,1.83
2019-04-21T17:21:37.487Z,2.10
2019-04-21T17:24:06.490Z,2.17
2019-04-21T17:26:39.024Z,2.37
2019-04-21T17:29:06.744Z,1.87
2019-04-21T17:31:37.193Z,1.90
2019-04-21T17:34:10.391Z,2.03
2019-04-21T17:36:37.146Z,2.43
2019-04-21T17:39:06.901Z,2.20
2019-04-21T17:41:43.471Z,2.97
2019-04-21T17:44:06.700Z,2.50
2019-04-21T17:46:45.626Z,2.10
2019-04-21T17:49:06.994Z,2.03
2019-04-21T17:52:00.876Z,2.50
2019-04-21T17:54:41.869Z,2.70
2019-04-21T17:57:26.723Z,2.23
2019-04-21T18:02:30.019Z,2.67
2019-04-21T18:04:57.811Z,2.80
2019-04-21T18:07:29.958Z,2.83
2019-04-21T18:10:04.238Z,2.43
2019-04-21T18:12:30.291Z,2.37
2019-04-21T18:14:56.502Z,2.80
2019-04-21T18:17:16.478Z,2.40
2019-04-21T18:19:47.465Z,2.50
2019-04-21T18:22:53.512Z,2.47
2019-04-21T18:25:36.405Z,2.50
2019-04-21T18:27:54.852Z,2.50
2019-04-21T18:30:40.749Z,2.23
2019-04-21T18:33:14.161Z,3.13
2019-04-21T18:35:58.610Z,3.10
2019-04-21T18:38:59.745Z,3.30
2019-04-21T18:41:09.920Z,2.70
2019-04-21T18:44:06.659Z,2.73
2019-04-21T18:46:40.634Z,2.90
2019-04-21T18:49:00.622Z,2.90
2019-04-21T18:51:54.799Z,2.73
2019-04-21T18:54:45.828Z,2.97
2019-04-21T18:57:07.641Z,2.80
2019-04-21T18:59:34.673Z,2.97
2019-04-21T19:02:06.477Z,2.80
2019-04-21T19:04:33.914Z,2.60
2019-04-21T19:07:12.750Z,2.60
2019-04-21T19:10:10.310Z,2.70
2019-04-21T19:12:33.998Z,2.47
2019-04-21T19:14:51.043Z,2.63
2019-04-21T19:20:02.036Z,2.40
2019-04-21T19:22:30.781Z,2.60
2019-04-21T19:24:59.777Z,3.00
2019-04-21T19:27:26.550Z,2.90
2019-04-21T19:30:23.387Z,3.10
2019-04-21T19:32:28.859Z,3.07
2019-04-21T19:34:48.581Z,2.63
2019-04-21T19:37:22.927Z,3.30
2019-04-21T19:40:01.855Z,3.50
2019-04-21T19:42:32.343Z,3.17
2019-04-21T19:45:10.780Z,3.40
2019-04-21T19:47:47.381Z,3.23
2019-04-21T19:50:19.469Z,3.33
2019-04-21T19:52:39.851Z,2.90
2019-04-21T19:55:00.657Z,3.00
2019-04-21T19:57:31.302Z,3.10
2019-04-21T20:00:05.793Z,3.30
2019-04-21T20:02:34.298Z,2.93
2019-04-21T20:05:10.711Z,2.93
2019-04-21T20:07:53.039Z,2.90
2019-04-21T20:10:44.493Z,3.00
2019-04-21T20:13:03.160Z,2.97
2019-04-21T20:15:36.132Z,3.20
2019-04-21T20:18:00.264Z,3.20
2019-04-21T20:20:17.189Z,3.30
2019-04-21T20:22:50.503Z,3.03
2019-04-21T20:25:22.778Z,3.33
2019-04-21T20:28:00.799Z,3.20
2019-04-21T20:30:40.499Z,3.17
2019-04-21T20:33:38.403Z,3.43
2019-04-21T20:35:52.314Z,2.90
2019-04-21T20:38:09.340Z,3.27
2019-04-21T20:40:37.230Z,3.10
2019-04-21T20:43:19.310Z,2.87
2019-04-21T20:45:49.291Z,2.90
2019-04-21T20:48:09.419Z,3.57
2019-04-21T20:50:41.994Z,3.70
2019-04-21T20:53:14.634Z,3.37
2019-04-21T20:55:45.621Z,3.03
2019-04-21T20:58:09.130Z,2.90
2019-04-21T21:00:55.761Z,3.27
2019-04-21T21:03:19.658Z,3.30
2019-04-21T21:06:03.775Z,3.60
2019-04-21T21:08:40.022Z,3.17
2019-04-21T21:11:06.847Z,3.30
2019-04-21T21:13:42.597Z,3.73
2019-04-21T21:21:11.378Z,3.40
2019-04-21T21:23:42.765Z,3.33
2019-04-21T21:26:16.157Z,3.40
2019-04-21T21:28:42.003Z,3.00
2019-04-21T21:31:13.249Z,3.77
2019-04-21T21:33:52.653Z,3.50
2019-04-21T21:36:13.959Z,2.93
2019-04-21T21:38:43.672Z,3.77
2019-04-21T21:41:07.663Z,3.30
2019-04-21T21:43:29.428Z,3.40
2019-04-21T21:46:01.564Z,3.63
2019-04-21T21:48:40.686Z,3.40
2019-04-21T21:51:08.193Z,3.37
2019-04-21T21:53:30.747Z,3.60
2019-04-21T21:56:00.586Z,3.37
2019-04-21T21:58:33.862Z,3.30
2019-04-21T22:01:02.959Z,3.93
2019-04-21T22:03:34.184Z,3.73
2019-04-21T22:06:06.257Z,3.97
2019-04-21T22:08:32.278Z,3.43
2019-04-21T22:11:01.356Z,3.67
2019-04-21T22:13:37.602Z,3.60
2019-04-21T22:16:06.783Z,3.57
2019-04-21T22:18:51.131Z,3.60
2019-04-21T22:21:12.779Z,3.23
2019-04-21T22:23:46.960Z,3.50
2019-04-21T22:26:03.157Z,4.00
2019-04-21T22:28:31.696Z,3.47
2019-04-21T22:31:01.076Z,3.90
2019-04-21T22:33:34.508Z,2.73
2019-04-21T22:36:09.793Z,3.77
2019-04-21T22:38:43.396Z,3.40
2019-04-21T22:41:16.149Z,3.70
2019-04-21T22:43:36.674Z,3.80
2019-04-21T22:46:05.692Z,3.33
2019-04-21T22:48:34.834Z,4.00
2019-04-21T22:51:06.970Z,3.53
2019-04-21T22:53:40.492Z,3.40
2019-04-21T22:56:13.678Z,3.50
2019-04-21T22:58:39.412Z,3.67
2019-04-21T23:01:06.024Z,3.30
2019-04-21T23:03:35.814Z,3.07
2019-04-21T23:06:09.791Z,2.90
2019-04-21T23:08:39.448Z,3.00
2019-04-21T23:11:08.921Z,3.33
2019-04-21T23:13:36.343Z,3.50
2019-04-21T23:16:07.600Z,2.90
2019-04-21T23:18:46.089Z,3.00
2019-04-21T23:21:19.476Z,3.17
2019-04-21T23:23:57.474Z,3.10
2019-04-21T23:26:26.801Z,3.23
2019-04-21T23:28:56.798Z,3.23
2019-04-21T23:31:29.103Z,2.70
2019-04-21T23:33:38.326Z,3.43
2019-04-21T23:36:12.002Z,3.40
2019-04-21T23:38:43.964Z,3.30
2019-04-21T23:41:11.001Z,3.10
2019-04-21T23:43:38.948Z,2.75
2019-04-21T23:46:10.426Z,2.70
2019-04-21T23:48:56.079Z,2.60
2019-04-21T23:51:24.696Z,2.93
2019-04-21T23:53:39.893Z,2.90
2019-04-21T23:56:08.661Z,3.07
2019-04-21T23:58:38.866Z,2.97
